Time;durP1;ratioP1;P1;durP2;ratioP2;P2;SDS_P1;SDS_P2;PMS_P1;PMS_P2;Temp;Humidity;BMP_temperature;BMP_pressure;BME280_temperature;BME280_humidity;BME280_pressure;Samples;Min_cycle;Max_cycle;Signal;HPM_P1;HPM_P2
2023/10/31 00:01:55;;;;;;;2.15;1.52;;;9.40;99.90;;;-144.05;89.50;56969.91;5015517;28;20042;-84
2023/10/31 00:04:21;;;;;;;4.18;2.08;;;;;;;-144.05;88.81;56980.53;5010058;28;20030;-83
2023/10/31 00:06:48;;;;;;;2.25;2.03;;;;;;;-144.05;88.36;56972.03;5037040;28;20526;-84
2023/10/31 00:09:14;;;;;;;3.60;2.30;;;;;;;-144.05;88.20;56963.53;5015481;28;20099;-84
2023/10/31 00:11:44;;;;;;;4.18;2.20;;;12.90;99.90;;;-144.05;86.60;56974.16;5015800;28;20025;-84
2023/10/31 00:14:10;;;;;;;3.30;2.28;;;;;;;-144.05;86.82;56978.41;5014712;28;20045;-83
2023/10/31 00:16:36;;;;;;;2.47;2.17;;;8.40;99.90;;;-144.05;86.11;56969.91;5015398;28;20364;-85
2023/10/31 00:19:02;;;;;;;2.80;2.22;;;;;;;-144.05;85.11;56963.53;4997808;28;20041;-85
2023/10/31 00:21:28;;;;;;;3.17;2.65;;;;;;;-144.05;84.78;56967.78;5015638;28;20053;-84
2023/10/31 00:23:55;;;;;;;2.40;2.20;;;;;;;-144.05;83.77;56989.00;4997252;28;20029;-85
2023/10/31 00:26:21;;;;;;;3.13;2.40;;;;;;;-144.05;83.75;56963.53;5015114;28;20501;-81
2023/10/31 00:28:47;;;;;;;3.38;3.03;;;;;;;-144.05;83.84;56972.03;5014693;28;20030;-84
2023/10/31 00:31:14;;;;;;;3.38;3.08;;;;;;;-144.05;84.38;56948.66;4996054;28;20030;-84
2023/10/31 00:33:40;;;;;;;3.83;3.08;;;;;;;-144.05;83.72;56997.50;5013386;28;20071;-84
2023/10/31 00:36:07;;;;;;;3.33;2.67;;;;;;;-144.05;83.41;56976.28;4996500;28;20144;-82
2023/10/31 00:38:34;;;;;;;5.18;3.80;;;;;;;-144.05;84.07;56978.41;5014540;28;20034;-84
2023/10/31 00:41:00;;;;;;;4.00;3.53;;;;;;;-144.05;84.29;56974.16;4997164;28;20041;-84
2023/10/31 00:43:26;;;;;;;4.60;3.58;;;;;;;-144.05;83.64;56952.91;4996937;28;20509;-84
2023/10/31 00:45:53;;;;;;;4.38;3.38;;;;;;;-144.05;84.26;56980.53;5014803;28;20030;-84
2023/10/31 00:48:20;;;;;;;4.18;3.30;;;7.20;99.90;;;-144.05;83.99;56980.53;5014271;28;20409;-82
2023/10/31 00:50:46;;;;;;;3.15;2.70;;;;;;;-144.05;83.89;56989.00;5014320;28;20025;-84
2023/10/31 00:53:14;;;;;;;3.10;2.63;;;;;;;-144.05;83.40;56989.00;5014180;28;20022;-84
2023/10/31 00:55:40;;;;;;;4.43;2.80;;;14.90;99.90;;;-144.05;83.24;57010.25;5014181;28;20049;-82
2023/10/31 00:58:06;;;;;;;2.88;2.67;;;;;;;-144.05;82.97;56950.78;5014710;28;20430;-85
2023/10/31 01:00:34;;;;;;;4.05;1.98;;;7.90;99.90;;;-144.05;82.91;56978.41;5005997;28;20037;-84
2023/10/31 01:03:00;;;;;;;2.58;1.60;;;7.80;99.90;;;-144.05;83.13;56984.78;5014286;28;20041;-82
2023/10/31 01:05:29;;;;;;;2.42;1.85;;;;;;;-144.05;82.38;56972.03;5013727;28;20025;-83
2023/10/31 01:07:55;;;;;;;2.10;1.77;;;8.40;99.90;;;-144.05;82.57;56989.00;5014025;28;20030;-84
2023/10/31 01:10:22;;;;;;;3.17;2.38;;;;;;;-144.05;82.78;56938.03;5013502;28;20057;-80
2023/10/31 01:12:48;;;;;;;3.38;2.05;;;;;;;-144.05;81.92;56969.91;5013847;28;20025;-84
2023/10/31 01:15:15;;;;;;;3.90;2.60;;;;;;;-144.05;81.61;56989.00;5013683;28;20462;-84
2023/10/31 01:17:41;;;;;;;2.35;2.10;;;;;;;-144.05;81.61;56946.53;4996246;28;20475;-83
2023/10/31 01:20:09;;;;;;;2.08;1.77;;;;;;;-144.05;81.56;56976.28;4996968;28;20029;-84
2023/10/31 01:22:35;;;;;;;3.45;1.70;;;;;;;-144.05;81.66;56978.41;5015873;28;20030;-84
2023/10/31 01:25:02;;;;;;;4.13;1.70;;;;;;;-144.05;81.02;56982.66;5031330;28;20037;-80
2023/10/31 01:27:29;;;;;;;1.67;1.50;;;11.10;99.90;;;-144.05;80.96;56967.78;5036708;28;20034;-77
2023/10/31 01:29:55;;;;;;;2.13;1.92;;;;;;;-144.05;81.41;56940.16;5036764;28;20030;-78
2023/10/31 01:32:21;;;;;;;1.70;1.30;;;;;;;-144.05;81.04;57006.00;5036783;28;20018;-77
2023/10/31 01:34:47;;;;;;;1.65;1.35;;;;;;;-144.05;80.39;56978.41;5033099;28;20030;-83
2023/10/31 01:37:14;;;;;;;4.13;1.27;;;;;;;-144.05;81.29;56967.78;5026713;28;20120;-83
2023/10/31 01:39:40;;;;;;;2.78;1.20;;;;;;;-144.05;81.09;56991.13;5015397;28;20036;-85
2023/10/31 01:42:07;;;;;;;1.27;1.00;;;;;;;-144.05;80.52;56991.13;4996763;28;20132;-84
2023/10/31 01:44:33;;;;;;;1.35;0.90;;;7.40;99.90;;;-144.05;80.38;56974.16;5013979;28;20034;-80
2023/10/31 01:46:59;;;;;;;2.42;1.20;;;;;;;-144.05;80.38;56969.91;5014334;28;20030;-84
2023/10/31 01:49:25;;;;;;;1.65;1.00;;;;;;;-144.05;80.62;57006.00;5013844;28;20049;-82
2023/10/31 01:51:52;;;;;;;1.60;1.10;;;;;;;-144.05;79.79;56959.28;5013792;28;20205;-79
2023/10/31 01:54:18;;;;;;;4.55;1.10;;;;;;;-144.05;80.22;56959.28;4996271;28;20100;-81
2023/10/31 01:56:45;;;;;;;1.40;1.00;;;;;;;-144.05;80.45;56980.53;5013778;28;20092;-84
2023/10/31 01:59:12;;;;;;;2.50;1.20;;;;;;;-144.05;80.75;56986.91;5013515;28;20041;-82
2023/10/31 02:01:42;;;;;;;3.05;1.70;;;10.70;99.90;;;-144.05;80.96;56997.50;5013822;28;20045;-82
2023/10/31 02:04:08;;;;;;;1.73;1.40;;;;;;;-144.05;80.42;56997.50;5013297;28;20042;-82
2023/10/31 02:06:34;;;;;;;2.60;1.60;;;;;;;-144.05;79.60;57023.00;5014063;28;20466;-83
2023/10/31 02:09:01;;;;;;;6.00;2.05;;;;;;;-144.05;81.04;56993.25;5013293;28;20164;-81
2023/10/31 02:11:27;;;;;;;3.72;1.80;;;;;;;-144.05;80.32;56984.78;4995811;28;20034;-80
2023/10/31 02:13:53;;;;;;;5.30;2.45;;;;;;;-144.05;80.01;57003.88;5013714;28;20026;-81
2023/10/31 02:16:20;;;;;;;2.75;2.33;;;;;;;-144.05;80.25;56991.13;5030370;28;20041;-81
2023/10/31 02:18:46;;;;;;;5.10;3.00;;;;;;;-144.05;80.08;56980.53;5025166;28;20096;-82
2023/10/31 02:21:12;;;;;;;8.45;2.80;;;;;;;-144.05;80.08;56989.00;5013262;28;20037;-83
2023/10/31 02:23:39;;;;;;;2.90;2.25;;;;;;;-144.05;80.64;56997.50;5016902;28;20030;-79
2023/10/31 02:26:05;;;;;;;4.43;3.03;;;15.00;99.90;;;-144.05;80.27;57008.13;5017438;28;20068;-82
2023/10/31 02:28:31;;;;;;;5.70;2.95;;;;;;;-144.05;80.47;57010.25;5017230;28;20026;-82
2023/10/31 02:30:57;;;;;;;5.90;3.38;;;;;;;-144.05;80.46;56999.63;5017321;28;20246;-79
2023/10/31 02:33:23;;;;;;;5.78;3.70;;;;;;;-144.05;80.56;57012.38;5017195;28;20022;-80
2023/10/31 02:35:49;;;;;;;5.18;3.40;;;7.50;99.90;;;-144.05;80.39;57008.13;5017476;28;20092;-79
2023/10/31 02:38:16;;;;;;;5.35;3.40;;;;;;;-144.05;80.79;56959.28;5019943;28;20152;-85
2023/10/31 02:40:42;;;;;;;5.53;4.05;;;7.90;99.90;;;-144.05;80.72;56999.63;5022911;28;20026;-81
2023/10/31 02:43:09;;;;;;;5.20;4.15;;;;;;;-144.05;81.08;57010.25;5027894;28;20076;-86
2023/10/31 02:45:35;;;;;;;6.03;3.65;;;;;;;-144.05;80.75;56969.91;5027335;28;20037;-85
2023/10/31 02:48:16;;;;;;;5.57;3.38;;;10.60;99.90;;;-144.05;80.86;56972.03;5024070;28;20025;-87
2023/10/31 02:50:43;;;;;;;4.22;3.08;;;;;;;-144.05;81.27;57006.00;5018668;28;20030;-85
2023/10/31 02:53:09;;;;;;;3.83;3.25;;;;;;;-144.05;81.77;56972.03;5023310;28;20477;-83
2023/10/31 02:55:35;;;;;;;6.22;4.22;;;7.50;99.90;;;-144.05;81.72;56963.53;5016953;28;20061;-83
2023/10/31 02:58:01;;;;;;;4.50;3.35;;;;;;;-144.05;82.36;56991.13;5016741;28;20034;-82
2023/10/31 03:00:27;;;;;;;4.38;3.47;;;;;;;-144.05;83.80;57018.75;5016695;28;20083;-83
2023/10/31 03:02:54;;;;;;;4.78;3.35;;;;;;;-144.05;83.34;56955.03;5016675;28;20479;-86
2023/10/31 03:05:20;;;;;;;4.28;2.97;;;;;;;-144.05;84.43;56967.78;4999075;28;20400;-81
2023/10/31 03:07:46;;;;;;;5.30;3.00;;;;;;;-144.05;85.39;56961.41;4999127;28;20026;-82
2023/10/31 03:10:13;;;;;;;4.40;3.75;;;;;;;-144.05;85.60;56972.03;5016576;28;20052;-81
2023/10/31 03:12:39;;;;;;;5.38;3.50;;;;;;;-144.05;85.26;56982.66;5017523;28;20105;-84
2023/10/31 03:15:06;;;;;;;6.53;3.10;;;10.20;99.90;;;-144.05;86.05;56993.25;5000512;28;20117;-84
2023/10/31 03:17:32;;;;;;;4.93;3.25;;;15.00;99.90;;;-144.05;86.31;57010.25;5017362;28;20343;-86
2023/10/31 03:19:58;;;;;;;4.60;3.03;;;;;;;-144.05;86.57;56993.25;5003028;28;20033;-86
2023/10/31 03:22:24;;;;;;;2.95;2.45;;;;;;;-144.05;87.14;56984.78;4999407;28;20491;-86
2023/10/31 03:24:50;;;;;;;2.42;2.22;;;;;;;-144.05;86.91;56959.28;4999464;28;20682;-84
2023/10/31 03:27:16;;;;;;;3.40;2.58;;;;;;;-144.05;87.32;56976.28;4999305;28;20041;-83
2023/10/31 03:29:43;;;;;;;5.47;3.58;;;;;;;-144.05;87.52;56967.78;4999527;28;20037;-88
2023/10/31 03:32:09;;;;;;;6.22;3.58;;;;;;;-144.05;86.79;56946.53;4998761;28;20076;-85
2023/10/31 03:34:37;;;;;;;8.13;4.47;;;;;;;-144.05;87.25;56991.13;4998398;28;20049;-86
2023/10/31 03:37:03;;;;;;;5.20;4.00;;;7.30;99.90;;;-144.05;86.94;56984.78;4998807;28;20057;-83
2023/10/31 03:39:29;;;;;;;6.82;4.45;;;;;;;-144.05;87.45;56961.41;4999001;28;20083;-86
2023/10/31 03:41:56;;;;;;;6.82;4.43;;;;;;;-144.05;87.82;57014.50;4999325;28;20395;-88
2023/10/31 03:44:22;;;;;;;5.28;4.00;;;7.50;99.90;;;-144.05;87.16;56972.03;4998534;28;20030;-88
2023/10/31 03:46:48;;;;;;;7.15;5.50;;;;;;;-144.05;87.87;56986.91;5015818;28;20275;-87
2023/10/31 03:49:14;;;;;;;11.05;6.22;;;;;;;-144.05;87.83;56982.66;4999806;28;20033;-86
2023/10/31 03:51:40;;;;;;;13.90;6.20;;;;;;;-144.05;88.12;56995.38;4999673;28;20061;-85
2023/10/31 03:54:08;;;;;;;14.40;7.43;;;;;;;-144.05;88.19;56993.25;4998900;28;20112;-87
2023/10/31 03:56:43;;;;;;;9.57;6.93;;;15.10;99.90;;;-144.05;88.45;56982.66;4998829;28;20026;-88
2023/10/31 03:59:10;;;;;;;13.85;7.88;;;;;;;-144.05;88.38;56993.25;4998979;28;20065;-86
2023/10/31 04:01:37;;;;;;;11.90;6.90;;;;;;;-144.05;87.48;56978.41;4999304;28;20117;-88
2023/10/31 04:04:03;;;;;;;13.05;6.82;;;;;;;-144.05;87.59;56989.00;5000236;28;20061;-87
2023/10/31 04:06:29;;;;;;;14.50;7.88;;;;;;;-144.05;88.08;56959.28;5001431;28;20029;-87
2023/10/31 04:08:56;;;;;;;11.80;6.63;;;;;;;-144.05;88.30;56974.16;5003013;28;20527;-89
2023/10/31 04:11:22;;;;;;;11.48;6.65;;;;;;;-144.05;88.02;56984.78;5004792;28;20037;-88
2023/10/31 04:13:48;;;;;;;11.90;6.53;;;;;;;-144.05;88.02;56963.53;5021113;28;20145;-86
2023/10/31 04:16:14;;;;;;;10.48;6.03;;;;;;;-144.05;87.90;56980.53;5002910;28;20026;-89
2023/10/31 04:18:41;;;;;;;8.25;5.25;;;;;;;-144.05;88.45;56969.91;5000684;28;20037;-88
2023/10/31 04:21:07;;;;;;;10.13;5.30;;;;;;;-144.05;88.13;56933.78;4998256;28;20034;-87
2023/10/31 04:23:33;;;;;;;9.48;5.32;;;;;;;-144.05;88.47;56963.53;5016838;28;20041;-87
2023/10/31 04:26:00;;;;;;;8.50;4.55;;;;;;;-144.05;88.42;56965.66;5019490;28;20054;-83
2023/10/31 04:28:26;;;;;;;9.50;5.05;;;;;;;-144.05;89.10;56967.78;5010026;28;20042;-87
2023/10/31 04:30:52;;;;;;;7.57;4.32;;;;;;;-144.05;88.17;56982.66;4997995;28;20034;-86
2023/10/31 04:33:18;;;;;;;7.97;4.82;;;;;;;-144.05;88.13;56982.66;4997466;28;20028;-85
2023/10/31 04:35:44;;;;;;;8.25;5.18;;;7.90;99.90;;;-144.05;88.10;56993.25;4997828;28;20073;-87
2023/10/31 04:38:12;;;;;;;9.20;4.95;;;10.20;99.90;;;-144.05;88.51;56959.28;5015095;28;20029;-87
2023/10/31 04:40:38;;;;;;;9.60;4.60;;;7.70;99.90;;;-144.05;88.13;57001.75;5015607;28;20045;-85
2023/10/31 04:43:04;;;;;;;9.10;5.25;;;;;;;-144.05;87.57;56986.91;4998110;28;20406;-85
2023/10/31 04:45:30;;;;;;;9.95;5.07;;;;;;;-144.05;87.96;56989.00;5014335;28;20117;-83
2023/10/31 04:47:57;;;;;;;7.85;5.53;;;;;;;-144.05;88.04;57006.00;4996676;28;20080;-84
2023/10/31 04:50:22;;;;;;;8.25;5.25;;;7.70;99.90;;;-144.05;88.07;56976.28;4997548;28;20056;-83
2023/10/31 04:52:49;;;;;;;8.40;5.65;;;;;;;-144.05;88.03;56950.78;5017032;28;20041;-82
2023/10/31 04:55:14;;;;;;;9.48;5.38;;;7.20;99.90;;;-144.05;87.72;56993.25;5014837;28;20025;-86
2023/10/31 04:57:41;;;;;;;11.25;5.85;;;;;;;-144.05;87.93;56991.13;5015073;28;20080;-85
2023/10/31 05:00:08;;;;;;;8.50;4.60;;;;;;;-144.05;87.82;56972.03;5015507;28;20163;-83
2023/10/31 05:02:34;;;;;;;8.23;5.30;;;7.60;99.90;;;-144.05;88.42;56980.53;4989825;28;20093;-85
2023/10/31 05:05:01;;;;;;;8.70;5.35;;;;;;;-144.05;88.20;57001.75;5014812;28;20025;-86
2023/10/31 05:07:27;;;;;;;9.40;5.97;;;7.40;99.90;;;-144.05;88.12;56982.66;5014334;28;20030;-84
2023/10/31 05:09:53;;;;;;;8.35;5.72;;;;;;;-144.05;89.51;56993.25;4996758;28;20037;-85
2023/10/31 05:12:19;;;;;;;9.18;5.63;;;7.90;99.90;;;-144.05;89.44;56982.66;4996740;28;20471;-81
2023/10/31 05:14:45;;;;;;;8.98;6.20;;;;;;;-144.05;88.55;56976.28;5014041;28;20060;-84
2023/10/31 05:17:12;;;;;;;8.73;6.13;;;;;;;-144.05;88.17;56995.38;5014746;28;20040;-83
2023/10/31 05:19:38;;;;;;;10.13;5.65;;;8.10;99.90;;;-144.05;88.26;56997.50;5014303;28;20491;-84
2023/10/31 05:22:04;;;;;;;8.32;4.75;;;;;;;-144.05;88.18;57006.00;4997974;28;20100;-84
2023/10/31 05:24:32;;;;;;;8.20;5.65;;;8.30;99.90;;;-144.05;87.57;56978.41;5014830;28;20483;-85
2023/10/31 05:26:58;;;;;;;6.68;5.40;;;;;;;-144.05;88.33;56980.53;5015321;28;20026;-84
2023/10/31 05:29:24;;;;;;;9.90;5.22;;;;;;;-144.05;88.37;57008.13;4996810;28;20045;-85
2023/10/31 05:31:50;;;;;;;9.63;5.50;;;;;;;-144.05;88.26;57014.50;5013772;28;20049;-86
2023/10/31 05:34:17;;;;;;;7.63;5.07;;;;;;;-144.05;88.19;56989.00;5013706;28;20108;-85
2023/10/31 05:36:43;;;;;;;7.00;5.18;;;;;;;-144.05;88.01;56965.66;5013749;28;20455;-85
2023/10/31 05:39:09;;;;;;;8.60;5.18;;;;;;;-144.05;87.65;56997.50;5014139;28;20096;-84
2023/10/31 05:41:35;;;;;;;7.60;4.70;;;7.70;99.90;;;-144.05;87.40;56957.16;5014413;28;20506;-84
2023/10/31 05:44:02;;;;;;;9.77;5.03;;;;;;;-144.05;88.33;56993.25;5013737;28;20030;-82
2023/10/31 05:46:28;;;;;;;7.10;5.18;;;15.10;99.90;;;-144.05;87.95;57014.50;5014365;28;20093;-85
2023/10/31 05:48:54;;;;;;;8.15;5.53;;;7.50;99.90;;;-144.05;87.45;57006.00;5014212;28;20076;-84
2023/10/31 05:51:20;;;;;;;11.13;5.90;;;;;;;-144.05;87.84;57001.75;5013665;28;20080;-84
2023/10/31 05:53:48;;;;;;;9.10;5.88;;;14.60;99.90;;;-144.05;87.28;57012.38;4996418;28;20065;-82
2023/10/31 05:56:16;;;;;;;10.88;6.20;;;11.50;99.90;;;-144.05;87.00;56982.66;4996296;28;20072;-82
2023/10/31 05:58:43;;;;;;;14.15;6.75;;;;;;;-144.05;87.23;56965.66;5017164;28;20067;-82
2023/10/31 06:01:09;;;;;;;13.27;6.90;;;;;;;-144.05;87.05;56976.28;5000167;28;20075;-84
2023/10/31 06:03:35;;;;;;;9.38;6.45;;;7.80;99.90;;;-144.05;87.17;56984.78;5017484;28;20081;-85
2023/10/31 06:06:02;;;;;;;9.73;5.75;;;;;;;-144.05;86.87;56997.50;5017312;28;20026;-85
2023/10/31 06:08:28;;;;;;;9.60;5.30;;;7.40;99.90;;;-144.05;86.32;56965.66;5017559;28;20582;-84
2023/10/31 06:10:56;;;;;;;7.40;4.90;;;10.20;99.90;;;-144.05;85.91;56982.66;5018131;28;20022;-84
2023/10/31 06:13:25;;;;;;;9.45;4.90;;;14.90;99.90;;;-144.05;86.28;56969.91;5000452;28;20553;-84
2023/10/31 06:15:53;;;;;;;7.82;5.95;;;;;;;-144.05;86.22;56974.16;5018149;28;20025;-83
2023/10/31 06:18:19;;;;;;;8.05;5.85;;;;;;;-144.05;86.26;56959.28;5018347;28;20029;-84
2023/10/31 06:20:46;;;;;;;16.10;6.35;;;;;;;-144.05;86.67;57020.88;5018730;28;20037;-85
2023/10/31 06:23:12;;;;;;;13.30;8.05;;;;;;;-144.05;87.02;56984.78;5019304;28;20390;-83
2023/10/31 06:25:39;;;;;;;14.48;10.13;;;;;;;-144.05;87.54;56984.78;5019279;28;20151;-83
2023/10/31 06:28:05;;;;;;;15.15;10.23;;;;;;;-144.05;87.97;57001.75;5020683;28;20022;-83
2023/10/31 06:30:31;;;;;;;16.25;10.50;;;;;;;-144.05;87.08;56965.66;5021602;28;20030;-85
2023/10/31 06:32:59;;;;;;;14.77;9.73;;;8.20;99.90;;;-144.05;86.80;56963.53;5001955;28;20030;-83
2023/10/31 06:35:25;;;;;;;17.02;10.70;;;;;;;-144.05;87.05;56955.03;5038876;28;20033;-84
2023/10/31 06:37:56;;;;;;;18.77;11.32;;;10.30;99.90;;;-144.05;86.94;56957.16;5026672;28;20034;-86
2023/10/31 06:40:24;;;;;;;18.73;11.27;;;8.60;99.90;;;-144.05;86.70;56972.03;5018774;28;20049;-84
2023/10/31 06:42:50;;;;;;;16.50;11.23;;;;;;;-144.05;86.34;57001.75;5018194;28;20108;-85
2023/10/31 06:45:17;;;;;;;22.33;11.38;;;;;;;-144.05;86.22;56999.63;5017760;28;20103;-85
2023/10/31 06:47:43;;;;;;;19.23;12.70;;;;;;;-144.05;85.74;56974.16;4999284;28;20061;-82
2023/10/31 06:50:09;;;;;;;19.83;12.07;;;8.20;99.90;;;-144.05;85.75;57012.38;5016624;28;20080;-83
2023/10/31 06:52:36;;;;;;;18.85;11.85;;;;;;;-144.05;85.61;57012.38;5018937;28;20487;-88
2023/10/31 06:55:02;;;;;;;18.63;11.93;;;14.40;99.90;;;-144.05;85.64;56946.53;5037526;28;20029;-83
2023/10/31 06:57:28;;;;;;;19.35;12.65;;;8.20;99.90;;;-144.05;86.40;56989.00;5020322;28;20054;-84
2023/10/31 06:59:55;;;;;;;18.40;12.75;;;;;;;-144.05;85.80;56976.28;5038421;28;20114;-83
2023/10/31 07:02:21;;;;;;;22.00;13.00;;;;;;;-144.05;85.65;56965.66;5033381;28;20042;-81
2023/10/31 07:04:48;;;;;;;20.50;12.93;;;;;;;-144.05;85.78;57001.75;5018675;28;20026;-83
2023/10/31 07:07:13;;;;;;;19.17;13.43;;;8.40;99.90;;;-144.05;85.41;56993.25;5017700;28;20414;-83
2023/10/31 07:09:39;;;;;;;22.17;13.15;;;8.20;99.90;;;-144.05;85.50;56959.28;5015441;28;20085;-85
2023/10/31 07:12:06;;;;;;;20.58;12.65;;;;;;;-144.05;85.83;56991.13;5016269;28;20057;-83
2023/10/31 07:14:32;;;;;;;22.17;13.25;;;8.30;99.90;;;-144.05;85.32;56997.50;5015769;28;20033;-83
2023/10/31 07:16:58;;;;;;;19.80;12.73;;;;;;;-144.05;85.32;56978.41;5016223;28;20174;-83
2023/10/31 07:19:24;;;;;;;19.33;12.73;;;;;;;-144.05;85.88;56976.28;5016017;28;20442;-84
2023/10/31 07:21:50;;;;;;;18.17;12.45;;;;;;;-144.05;85.88;56944.41;5016370;28;20111;-83
2023/10/31 07:24:17;;;;;;;20.95;13.57;;;;;;;-144.05;85.94;56980.53;5015770;28;20030;-83
2023/10/31 07:26:43;;;;;;;19.83;13.45;;;;;;;-144.05;85.54;56972.03;5016504;28;20049;-82
2023/10/31 07:29:09;;;;;;;19.83;11.80;;;8.20;99.90;;;-144.05;85.70;57001.75;5016215;28;20034;-83
2023/10/31 07:31:38;;;;;;;16.77;11.73;;;;;;;-144.05;85.59;57008.13;5016766;28;20026;-82
2023/10/31 07:34:05;;;;;;;17.33;11.35;;;;;;;-144.05;85.76;56976.28;5016549;28;20037;-81
2023/10/31 07:36:34;;;;;;;18.77;11.65;;;;;;;-144.05;85.63;56982.66;5016316;28;20053;-84
2023/10/31 07:39:02;;;;;;;15.43;10.35;;;;;;;-144.05;85.20;56993.25;5015983;28;20079;-79
2023/10/31 07:41:28;;;;;;;15.18;10.48;;;;;;;-144.05;85.46;56980.53;5016621;28;20403;-83
2023/10/31 07:43:54;;;;;;;19.85;9.77;;;14.90;99.90;;;-144.05;84.89;56972.03;5016285;28;20372;-82
2023/10/31 07:46:21;;;;;;;13.38;9.23;;;;;;;-144.05;84.66;56999.63;5016783;28;20033;-82
2023/10/31 07:48:47;;;;;;;16.65;9.32;;;;;;;-144.05;84.60;56999.63;5016133;28;20033;-81
2023/10/31 07:51:13;;;;;;;15.85;9.52;;;;;;;-144.05;84.17;56993.25;5016035;28;20084;-83
2023/10/31 07:53:41;;;;;;;12.50;8.40;;;;;;;-144.05;84.72;56980.53;5016900;28;20033;-83
2023/10/31 07:56:22;;;;;;;13.07;7.85;;;10.70;99.90;;;-144.05;83.63;56967.78;4999584;28;20045;-82
2023/10/31 07:58:49;;;;;;;12.88;8.60;;;8.80;99.90;;;-144.05;82.71;56972.03;5016168;28;20526;-85
2023/10/31 08:01:21;;;;;;;11.40;7.72;;;10.70;99.90;;;-144.05;83.45;56969.91;4995746;28;20034;-83
2023/10/31 08:03:47;;;;;;;10.15;7.78;;;;;;;-144.05;82.38;56989.00;5015971;28;20026;-85
2023/10/31 08:06:14;;;;;;;10.80;8.43;;;;;;;-144.05;80.97;57001.75;5020395;28;20041;-87
2023/10/31 08:08:41;;;;;;;11.80;7.35;;;;;;;-144.05;81.01;56961.41;4998014;28;20056;-83
2023/10/31 08:11:11;;;;;;;12.48;7.60;;;14.70;99.90;;;-144.05;81.95;56997.50;4998682;28;20386;-85
2023/10/31 08:13:38;;;;;;;10.77;7.28;;;14.50;99.90;;;-144.05;81.01;57001.75;5008101;28;20393;-84
2023/10/31 08:16:07;;;;;;;12.10;7.72;;;8.10;99.90;;;-144.05;80.46;56984.78;5015724;28;20084;-83
2023/10/31 08:18:35;;;;;;;9.73;7.25;;;7.60;99.90;;;-144.05;81.17;56974.16;4997257;28;20041;-82
2023/10/31 08:21:03;;;;;;;12.23;8.07;;;8.40;99.90;;;-144.05;81.29;56989.00;5013645;28;20446;-81
2023/10/31 08:23:29;;;;;;;12.45;7.80;;;8.50;99.90;;;-144.05;81.41;56993.25;5015078;28;20491;-84
2023/10/31 08:25:56;;;;;;;9.40;7.10;;;;;;;-144.05;79.97;56967.78;5015092;28;20041;-81
2023/10/31 08:28:22;;;;;;;10.32;8.20;;;8.00;99.90;;;-144.05;80.34;56997.50;5014431;28;20026;-84
2023/10/31 08:30:48;;;;;;;9.55;7.28;;;;;;;-144.05;80.19;56982.66;4996897;28;20029;-85
2023/10/31 08:33:14;;;;;;;12.07;8.50;;;14.90;99.90;;;-144.05;79.38;56976.28;5014567;28;20447;-83
2023/10/31 08:35:41;;;;;;;11.82;8.45;;;8.80;99.90;;;-144.05;79.71;56995.38;5014461;28;20060;-81
2023/10/31 08:38:07;;;;;;;11.25;8.32;;;15.10;99.90;;;-144.05;79.60;56978.41;5014677;28;20025;-83
2023/10/31 08:40:33;;;;;;;12.27;8.85;;;14.70;99.90;;;-144.05;78.86;56974.16;5015704;28;20029;-84
2023/10/31 08:43:00;;;;;;;14.20;8.68;;;;;;;-144.05;78.82;56967.78;5020333;28;20053;-85
2023/10/31 08:45:26;;;;;;;10.55;8.40;;;15.00;99.90;;;-144.05;78.26;57014.50;5033026;28;20038;-84
2023/10/31 08:47:52;;;;;;;10.30;8.73;;;14.90;99.90;;;-144.05;79.18;56980.53;5001281;28;20038;-85
2023/10/31 08:50:18;;;;;;;14.38;9.27;;;;;;;-144.05;79.04;56974.16;5015064;28;20309;-82
2023/10/31 08:52:45;;;;;;;11.15;8.35;;;;;;;-144.05;79.40;56957.16;5015229;28;20030;-81
2023/10/31 08:55:11;;;;;;;9.40;7.88;;;;;;;-144.05;79.12;56989.00;5014728;28;20030;-82
2023/10/31 08:57:37;;;;;;;14.52;7.88;;;;;;;-144.05;80.11;56997.50;4997332;28;20427;-83
2023/10/31 09:00:05;;;;;;;10.05;7.25;;;8.10;99.90;;;-144.05;79.62;56993.25;5014669;28;20030;-82
2023/10/31 09:02:31;;;;;;;10.77;7.70;;;;;;;-144.05;79.22;56963.53;5014243;28;20113;-82
2023/10/31 09:04:57;;;;;;;10.48;8.07;;;;;;;-144.05;78.60;56993.25;5014582;28;20129;-83
2023/10/31 09:07:23;;;;;;;9.45;7.32;;;15.40;99.90;;;-144.05;78.75;56993.25;5014296;28;20454;-80
2023/10/31 09:09:49;;;;;;;9.00;7.05;;;;;;;-144.05;78.80;56959.28;5014045;28;20108;-82
2023/10/31 09:12:15;;;;;;;9.52;7.35;;;;;;;-144.05;78.90;56978.41;5014648;28;20030;-82
2023/10/31 09:14:42;;;;;;;7.82;6.28;;;;;;;-144.05;78.00;57008.13;5014376;28;20111;-83
2023/10/31 09:17:08;;;;;;;9.35;6.90;;;;;;;-144.05;78.80;56986.91;5015011;28;20114;-79
2023/10/31 09:19:34;;;;;;;10.65;7.13;;;;;;;-144.05;78.08;56969.91;5007366;28;20058;-82
2023/10/31 09:22:01;;;;;;;9.30;7.03;;;;;;;-144.05;79.35;56989.00;5014567;28;20054;-84
2023/10/31 09:24:27;;;;;;;9.32;6.95;;;;;;;-144.05;77.98;56989.00;4996838;28;20081;-82
2023/10/31 09:26:53;;;;;;;11.27;7.00;;;15.30;99.90;;;-144.05;77.91;56980.53;4995781;28;20056;-82
2023/10/31 09:29:19;;;;;;;7.18;6.13;;;;;;;-144.05;77.76;56967.78;5014125;28;20042;-82
2023/10/31 09:31:45;;;;;;;9.32;6.78;;;15.20;99.90;;;-144.05;77.41;56969.91;5014469;28;20080;-83
2023/10/31 09:34:10;;;;;;;6.85;6.07;;;15.30;99.90;;;-144.05;76.71;56993.25;5015724;28;20085;-83
2023/10/31 09:36:39;;;;;;;9.60;6.60;;;;;;;-144.05;76.66;56976.28;5015621;28;20030;-80
2023/10/31 09:39:05;;;;;;;9.18;6.38;;;15.30;99.90;;;-144.05;76.03;56984.78;5014980;28;20041;-83
2023/10/31 09:41:34;;;;;;;8.02;6.07;;;9.40;99.90;;;-144.05;76.47;56980.53;4998159;28;20034;-84
2023/10/31 09:44:01;;;;;;;8.18;6.03;;;;;;;-144.05;75.46;56982.66;5015506;28;20041;-84
2023/10/31 09:46:29;;;;;;;8.23;5.53;;;8.10;99.90;;;-144.05;75.47;56978.41;5015149;28;20038;-83
2023/10/31 09:48:57;;;;;;;9.02;5.93;;;11.90;99.90;;;-144.05;75.41;56976.28;5015983;28;20104;-81
2023/10/31 09:51:23;;;;;;;7.45;5.95;;;;;;;-144.05;75.26;57006.00;5016176;28;20033;-79
2023/10/31 09:53:54;;;;;;;8.82;6.03;;;15.60;99.90;;;-144.05;76.17;56978.41;4998135;28;20029;-83
2023/10/31 09:56:22;;;;;;;8.13;5.50;;;;;;;-144.05;75.40;56978.41;4997743;28;20054;-84
2023/10/31 09:58:48;;;;;;;7.85;5.97;;;;;;;-144.05;75.28;56991.13;4997832;28;20038;-84
2023/10/31 10:01:14;;;;;;;8.30;5.90;;;8.00;99.90;;;-144.05;74.37;56995.38;5015118;28;20513;-83
2023/10/31 10:03:42;;;;;;;9.88;5.68;;;;;;;-144.05;73.85;56984.78;5014857;28;20510;-82
2023/10/31 10:06:10;;;;;;;6.88;5.70;;;8.80;99.90;;;-144.05;74.47;56976.28;5014886;28;20034;-81
2023/10/31 10:08:39;;;;;;;7.63;5.53;;;11.60;99.90;;;-144.05;74.54;56972.03;4996488;28;20034;-82
2023/10/31 10:11:06;;;;;;;5.63;4.88;;;;;;;-144.05;75.05;56993.25;5015202;28;20050;-82
2023/10/31 10:13:32;;;;;;;9.57;5.72;;;8.50;99.90;;;-144.05;74.96;56978.41;5015400;28;20026;-81
2023/10/31 10:15:59;;;;;;;10.88;5.50;;;;;;;-144.05;74.47;56948.66;5015004;28;20033;-81
2023/10/31 10:18:32;;;;;;;7.85;4.88;;;12.10;99.90;;;-144.05;74.49;56980.53;4997591;28;20428;-82
2023/10/31 10:21:05;;;;;;;7.10;5.00;;;15.30;99.90;;;-144.05;74.82;56980.53;5014728;28;20030;-83
2023/10/31 10:23:33;;;;;;;6.55;5.13;;;15.30;99.90;;;-144.05;74.61;56978.41;5015281;28;20049;-83
2023/10/31 10:26:01;;;;;;;5.63;4.35;;;12.40;99.90;;;-144.05;74.66;56961.41;5013893;28;20030;-84
2023/10/31 10:28:32;;;;;;;11.30;4.47;;;;;;;-144.05;73.48;56984.78;5014611;28;20115;-84
2023/10/31 10:30:59;;;;;;;5.20;4.57;;;;;;;-144.05;72.87;56984.78;5014829;28;20026;-82
2023/10/31 10:33:25;;;;;;;9.68;4.53;;;;;;;-144.05;72.54;56974.16;5014446;28;20026;-81
2023/10/31 10:35:54;;;;;;;7.15;5.28;;;;;;;-144.05;72.39;56972.03;5013742;28;20022;-82
2023/10/31 10:38:21;;;;;;;5.50;3.92;;;15.40;99.90;;;-144.05;72.12;56976.28;5014447;28;20022;-80
2023/10/31 10:40:48;;;;;;;4.72;3.70;;;9.30;99.90;;;-144.05;72.04;56991.13;5014015;28;20061;-84
2023/10/31 10:43:24;;;;;;;6.07;4.57;;;;;;;-144.05;73.65;56989.00;5014953;28;20050;-82
2023/10/31 10:45:56;;;;;;;7.20;4.97;;;8.80;99.90;;;-144.05;74.06;56991.13;5017497;28;20034;-82
2023/10/31 10:48:26;;;;;;;9.35;4.53;;;8.90;99.90;;;-144.05;73.75;56980.53;5017685;28;20199;-81